sensor_id;sensor_type;location;lat;lon;timestamp;pressure;altitude;pressure_sealevel;temperature;humidity
47670;BME280;33408;52.062;11.722;2023-02-28T00:02:23;102693.44;;;0.41;100.00
47670;BME280;33408;52.062;11.722;2023-02-28T00:04:49;102699.91;;;0.51;100.00
47670;BME280;33408;52.062;11.722;2023-02-28T00:07:18;102697.38;;;0.67;100.00
47670;BME280;33408;52.062;11.722;2023-02-28T00:09:44;102688.91;;;0.52;100.00
47670;BME280;33408;52.062;11.722;2023-02-28T00:12:12;102699.09;;;0.35;100.00
47670;BME280;33408;52.062;11.722;2023-02-28T00:14:38;102687.63;;;0.29;100.00
47670;BME280;33408;52.062;11.722;2023-02-28T00:17:06;102690.84;;;0.25;100.00
47670;BME280;33408;52.062;11.722;2023-02-28T00:19:33;102694.00;;;0.35;100.00
47670;BME280;33408;52.062;11.722;2023-02-28T00:21:59;102696.09;;;0.28;100.00
47670;BME280;33408;52.062;11.722;2023-02-28T00:24:26;102692.69;;;0.59;100.00
47670;BME280;33408;52.062;11.722;2023-02-28T00:26:52;102688.06;;;0.68;100.00
47670;BME280;33408;52.062;11.722;2023-02-28T00:29:19;102686.56;;;0.88;100.00
47670;BME280;33408;52.062;11.722;2023-02-28T00:31:45;102686.13;;;0.95;100.00
47670;BME280;33408;52.062;11.722;2023-02-28T00:34:13;102683.22;;;0.89;100.00
47670;BME280;33408;52.062;11.722;2023-02-28T00:36:40;102681.72;;;0.93;100.00
47670;BME280;33408;52.062;11.722;2023-02-28T00:39:10;102680.59;;;0.71;100.00
47670;BME280;33408;52.062;11.722;2023-02-28T00:41:37;102677.63;;;0.80;100.00
47670;BME280;33408;52.062;11.722;2023-02-28T00:44:04;102671.81;;;0.99;100.00
47670;BME280;33408;52.062;11.722;2023-02-28T00:46:30;102679.16;;;1.09;100.00
47670;BME280;33408;52.062;11.722;2023-02-28T00:48:57;102674.94;;;1.09;100.00
47670;BME280;33408;52.062;11.722;2023-02-28T00:51:25;102670.63;;;1.08;100.00
47670;BME280;33408;52.062;11.722;2023-02-28T00:53:51;102670.88;;;0.97;100.00
47670;BME280;33408;52.062;11.722;2023-02-28T00:56:18;102679.16;;;0.93;100.00
47670;BME280;33408;52.062;11.722;2023-02-28T00:58:44;102681.06;;;0.80;100.00
47670;BME280;33408;52.062;11.722;2023-02-28T01:01:11;102684.00;;;0.88;100.00
47670;BME280;33408;52.062;11.722;2023-02-28T01:03:38;102688.69;;;0.64;100.00
47670;BME280;33408;52.062;11.722;2023-02-28T01:06:05;102682.81;;;0.65;100.00
47670;BME280;33408;52.062;11.722;2023-02-28T01:08:33;102683.28;;;0.26;100.00
47670;BME280;33408;52.062;11.722;2023-02-28T01:11:07;102689.75;;;0.36;100.00
47670;BME280;33408;52.062;11.722;2023-02-28T01:13:34;102687.63;;;0.44;100.00
47670;BME280;33408;52.062;11.722;2023-02-28T01:16:00;102688.19;;;0.54;100.00
47670;BME280;33408;52.062;11.722;2023-02-28T01:18:27;102690.53;;;0.35;100.00
47670;BME280;33408;52.062;11.722;2023-02-28T01:20:54;102682.72;;;0.32;100.00
47670;BME280;33408;52.062;11.722;2023-02-28T01:23:21;102687.16;;;0.20;100.00
47670;BME280;33408;52.062;11.722;2023-02-28T01:25:50;102681.22;;;0.35;100.00
47670;BME280;33408;52.062;11.722;2023-02-28T01:28:16;102688.59;;;0.46;100.00
47670;BME280;33408;52.062;11.722;2023-02-28T01:30:47;102680.94;;;0.46;100.00
47670;BME280;33408;52.062;11.722;2023-02-28T01:33:14;102679.22;;;0.61;100.00
47670;BME280;33408;52.062;11.722;2023-02-28T01:35:41;102670.31;;;0.54;100.00
47670;BME280;33408;52.062;11.722;2023-02-28T01:38:07;102675.50;;;0.87;100.00
47670;BME280;33408;52.062;11.722;2023-02-28T01:40:34;102670.47;;;0.89;100.00
47670;BME280;33408;52.062;11.722;2023-02-28T01:43:02;102668.28;;;0.80;100.00
47670;BME280;33408;52.062;11.722;2023-02-28T01:45:30;102662.97;;;0.92;100.00
47670;BME280;33408;52.062;11.722;2023-02-28T01:48:00;102669.19;;;0.81;100.00
47670;BME280;33408;52.062;11.722;2023-02-28T01:50:33;102661.47;;;0.64;100.00
47670;BME280;33408;52.062;11.722;2023-02-28T01:53:04;102675.41;;;0.69;100.00
47670;BME280;33408;52.062;11.722;2023-02-28T01:55:33;102684.72;;;0.38;100.00
47670;BME280;33408;52.062;11.722;2023-02-28T01:58:04;102672.97;;;0.56;100.00
47670;BME280;33408;52.062;11.722;2023-02-28T02:00:32;102665.72;;;0.80;100.00
47670;BME280;33408;52.062;11.722;2023-02-28T02:03:04;102675.47;;;0.71;100.00
47670;BME280;33408;52.062;11.722;2023-02-28T02:05:31;102671.00;;;0.83;100.00
47670;BME280;33408;52.062;11.722;2023-02-28T02:08:03;102667.25;;;0.93;100.00
47670;BME280;33408;52.062;11.722;2023-02-28T02:10:33;102666.31;;;0.91;100.00
47670;BME280;33408;52.062;11.722;2023-02-28T02:13:38;102668.44;;;0.83;100.00
47670;BME280;33408;52.062;11.722;2023-02-28T02:16:18;102670.88;;;0.97;100.00
47670;BME280;33408;52.062;11.722;2023-02-28T02:18:52;102661.94;;;1.05;100.00
47670;BME280;33408;52.062;11.722;2023-02-28T02:21:54;102658.00;;;1.12;100.00
47670;BME280;33408;52.062;11.722;2023-02-28T02:24:48;102662.06;;;0.91;100.00
47670;BME280;33408;52.062;11.722;2023-02-28T02:27:28;102668.06;;;0.92;100.00
47670;BME280;33408;52.062;11.722;2023-02-28T02:30:21;102666.31;;;0.91;100.00
47670;BME280;33408;52.062;11.722;2023-02-28T02:36:06;102659.91;;;0.83;100.00
47670;BME280;33408;52.062;11.722;2023-02-28T02:38:43;102666.22;;;0.89;100.00
47670;BME280;33408;52.062;11.722;2023-02-28T02:41:15;102662.88;;;0.90;100.00
47670;BME280;33408;52.062;11.722;2023-02-28T02:43:47;102667.34;;;0.95;100.00
47670;BME280;33408;52.062;11.722;2023-02-28T02:46:19;102665.69;;;0.95;100.00
47670;BME280;33408;52.062;11.722;2023-02-28T02:48:48;102670.78;;;0.95;100.00
47670;BME280;33408;52.062;11.722;2023-02-28T02:51:21;102671.50;;;0.76;100.00
47670;BME280;33408;52.062;11.722;2023-02-28T02:53:50;102671.56;;;0.78;100.00
47670;BME280;33408;52.062;11.722;2023-02-28T02:56:21;102673.97;;;0.75;100.00
47670;BME280;33408;52.062;11.722;2023-02-28T02:58:50;102678.91;;;0.88;100.00
47670;BME280;33408;52.062;11.722;2023-02-28T03:01:22;102679.22;;;0.78;100.00
47670;BME280;33408;52.062;11.722;2023-02-28T03:03:55;102677.13;;;0.87;100.00
47670;BME280;33408;52.062;11.722;2023-02-28T03:06:25;102675.56;;;0.89;100.00
47670;BME280;33408;52.062;11.722;2023-02-28T03:08:52;102679.25;;;0.94;100.00
47670;BME280;33408;52.062;11.722;2023-02-28T03:11:19;102675.00;;;0.78;100.00
47670;BME280;33408;52.062;11.722;2023-02-28T03:14:08;102676.25;;;0.53;100.00
47670;BME280;33408;52.062;11.722;2023-02-28T03:16:55;102675.22;;;0.66;100.00
47670;BME280;33408;52.062;11.722;2023-02-28T03:19:36;102673.78;;;0.71;100.00
47670;BME280;33408;52.062;11.722;2023-02-28T03:22:14;102676.69;;;0.78;100.00
47670;BME280;33408;52.062;11.722;2023-02-28T03:24:47;102677.13;;;0.54;100.00
47670;BME280;33408;52.062;11.722;2023-02-28T03:27:21;102676.16;;;0.52;100.00
47670;BME280;33408;52.062;11.722;2023-02-28T03:29:56;102675.91;;;0.47;100.00
47670;BME280;33408;52.062;11.722;2023-02-28T03:32:27;102673.28;;;0.62;100.00
47670;BME280;33408;52.062;11.722;2023-02-28T03:34:58;102678.91;;;0.71;100.00
47670;BME280;33408;52.062;11.722;2023-02-28T03:37:32;102673.47;;;0.65;100.00
47670;BME280;33408;52.062;11.722;2023-02-28T03:40:06;102678.06;;;0.56;100.00
47670;BME280;33408;52.062;11.722;2023-02-28T03:42:40;102679.31;;;0.48;100.00
47670;BME280;33408;52.062;11.722;2023-02-28T03:45:11;102683.56;;;0.47;100.00
47670;BME280;33408;52.062;11.722;2023-02-28T03:47:41;102673.28;;;0.62;100.00
47670;BME280;33408;52.062;11.722;2023-02-28T03:50:13;102673.00;;;0.72;100.00
47670;BME280;33408;52.062;11.722;2023-02-28T03:52:47;102677.69;;;0.48;100.00
47670;BME280;33408;52.062;11.722;2023-02-28T03:55:17;102678.50;;;0.17;100.00
47670;BME280;33408;52.062;11.722;2023-02-28T03:57:53;102688.31;;;0.10;100.00
47670;BME280;33408;52.062;11.722;2023-02-28T04:00:30;102676.31;;;0.24;100.00
47670;BME280;33408;52.062;11.722;2023-02-28T04:02:58;102680.53;;;0.23;100.00
47670;BME280;33408;52.062;11.722;2023-02-28T04:05:25;102688.41;;;0.11;100.00
47670;BME280;33408;52.062;11.722;2023-02-28T04:07:54;102688.31;;;-0.05;100.00
47670;BME280;33408;52.062;11.722;2023-02-28T04:10:29;102685.31;;;0.17;100.00
47670;BME280;33408;52.062;11.722;2023-02-28T04:12:56;102689.97;;;0.24;100.00
47670;BME280;33408;52.062;11.722;2023-02-28T04:15:22;102680.41;;;0.36;100.00
47670;BME280;33408;52.062;11.722;2023-02-28T04:17:49;102679.19;;;0.30;100.00
47670;BME280;33408;52.062;11.722;2023-02-28T04:20:16;102683.91;;;0.39;100.00
47670;BME280;33408;52.062;11.722;2023-02-28T04:22:43;102679.06;;;0.43;100.00
47670;BME280;33408;52.062;11.722;2023-02-28T04:25:11;102680.41;;;0.36;100.00
47670;BME280;33408;52.062;11.722;2023-02-28T04:27:37;102689.97;;;0.09;100.00
47670;BME280;33408;52.062;11.722;2023-02-28T04:30:05;102687.41;;;0.24;100.00
47670;BME280;33408;52.062;11.722;2023-02-28T04:32:32;102689.97;;;0.24;100.00
47670;BME280;33408;52.062;11.722;2023-02-28T04:34:59;102686.94;;;0.31;100.00
47670;BME280;33408;52.062;11.722;2023-02-28T04:37:25;102692.22;;;0.34;100.00
47670;BME280;33408;52.062;11.722;2023-02-28T04:39:54;102694.59;;;0.31;100.00
47670;BME280;33408;52.062;11.722;2023-02-28T04:42:22;102697.03;;;-0.02;100.00
47670;BME280;33408;52.062;11.722;2023-02-28T04:44:49;102698.97;;;-0.12;100.00
47670;BME280;33408;52.062;11.722;2023-02-28T04:47:15;102699.50;;;-0.03;100.00
47670;BME280;33408;52.062;11.722;2023-02-28T04:49:42;102687.09;;;-0.12;100.00
47670;BME280;33408;52.062;11.722;2023-02-28T04:52:09;102689.22;;;-0.05;100.00
47670;BME280;33408;52.062;11.722;2023-02-28T04:54:36;102689.81;;;-0.09;100.00
47670;BME280;33408;52.062;11.722;2023-02-28T04:57:04;102690.25;;;-0.01;100.00
47670;BME280;33408;52.062;11.722;2023-02-28T04:59:32;102685.25;;;0.01;100.00
47670;BME280;33408;52.062;11.722;2023-02-28T05:01:59;102693.66;;;-0.45;100.00
47670;BME280;33408;52.062;11.722;2023-02-28T05:04:25;102691.75;;;-0.34;100.00
47670;BME280;33408;52.062;11.722;2023-02-28T05:06:52;102697.44;;;-0.53;100.00
47670;BME280;33408;52.062;11.722;2023-02-28T05:09:18;102700.69;;;-0.56;100.00
47670;BME280;33408;52.062;11.722;2023-02-28T05:11:45;102702.16;;;-0.60;100.00
47670;BME280;33408;52.062;11.722;2023-02-28T05:14:13;102700.22;;;-0.79;100.00
47670;BME280;33408;52.062;11.722;2023-02-28T05:16:41;102699.94;;;-0.83;100.00
47670;BME280;33408;52.062;11.722;2023-02-28T05:19:08;102707.94;;;-0.77;100.00
47670;BME280;33408;52.062;11.722;2023-02-28T05:21:36;102708.44;;;-0.83;100.00
47670;BME280;33408;52.062;11.722;2023-02-28T05:24:05;102712.44;;;-1.01;100.00
47670;BME280;33408;52.062;11.722;2023-02-28T05:26:34;102711.44;;;-1.03;100.00
47670;BME280;33408;52.062;11.722;2023-02-28T05:29:01;102721.63;;;-1.03;100.00
47670;BME280;33408;52.062;11.722;2023-02-28T05:31:28;102712.84;;;-1.08;100.00
47670;BME280;33408;52.062;11.722;2023-02-28T05:33:56;102716.31;;;-0.93;100.00
47670;BME280;33408;52.062;11.722;2023-02-28T05:36:23;102725.56;;;-1.08;100.00
47670;BME280;33408;52.062;11.722;2023-02-28T05:38:50;102722.25;;;-1.07;100.00
47670;BME280;33408;52.062;11.722;2023-02-28T05:41:18;102722.63;;;-1.01;100.00
47670;BME280;33408;52.062;11.722;2023-02-28T05:43:45;102727.09;;;-0.97;100.00
47670;BME280;33408;52.062;11.722;2023-02-28T05:46:13;102729.78;;;-0.81;100.00
47670;BME280;33408;52.062;11.722;2023-02-28T05:48:40;102725.22;;;-0.86;100.00
47670;BME280;33408;52.062;11.722;2023-02-28T05:51:09;102720.66;;;-1.05;100.00
47670;BME280;33408;52.062;11.722;2023-02-28T05:53:36;102729.63;;;-0.97;100.00
47670;BME280;33408;52.062;11.722;2023-02-28T05:56:03;102729.44;;;-0.87;100.00
47670;BME280;33408;52.062;11.722;2023-02-28T05:58:30;102736.88;;;-0.90;100.00
47670;BME280;33408;52.062;11.722;2023-02-28T06:00:57;102734.00;;;-0.81;100.00
47670;BME280;33408;52.062;11.722;2023-02-28T06:03:24;102733.44;;;-0.90;100.00
47670;BME280;33408;52.062;11.722;2023-02-28T06:05:51;102732.13;;;-0.84;100.00
47670;BME280;33408;52.062;11.722;2023-02-28T06:08:19;102737.31;;;-0.82;100.00
47670;BME280;33408;52.062;11.722;2023-02-28T06:10:46;102739.78;;;-0.84;100.00
47670;BME280;33408;52.062;11.722;2023-02-28T06:13:12;102740.28;;;-0.89;100.00
47670;BME280;33408;52.062;11.722;2023-02-28T06:15:39;102733.97;;;-0.96;100.00
47670;BME280;33408;52.062;11.722;2023-02-28T06:18:06;102743.66;;;-1.04;100.00
47670;BME280;33408;52.062;11.722;2023-02-28T06:20:32;102746.63;;;-1.11;100.00
47670;BME280;33408;52.062;11.722;2023-02-28T06:22:59;102749.34;;;-1.08;100.00
47670;BME280;33408;52.062;11.722;2023-02-28T06:25:27;102751.88;;;-0.95;100.00
47670;BME280;33408;52.062;11.722;2023-02-28T06:27:54;102748.50;;;-0.80;100.00
47670;BME280;33408;52.062;11.722;2023-02-28T06:30:21;102763.97;;;-1.19;100.00
47670;BME280;33408;52.062;11.722;2023-02-28T06:32:50;102758.66;;;-1.08;100.00
47670;BME280;33408;52.062;11.722;2023-02-28T06:35:17;102771.13;;;-1.40;100.00
47670;BME280;33408;52.062;11.722;2023-02-28T06:37:44;102771.50;;;-1.60;100.00
47670;BME280;33408;52.062;11.722;2023-02-28T06:40:11;102778.06;;;-1.51;100.00
47670;BME280;33408;52.062;11.722;2023-02-28T06:42:39;102776.00;;;-1.56;100.00
47670;BME280;33408;52.062;11.722;2023-02-28T06:45:07;102781.38;;;-1.65;100.00
47670;BME280;33408;52.062;11.722;2023-02-28T06:47:34;102771.81;;;-1.42;100.00
47670;BME280;33408;52.062;11.722;2023-02-28T06:50:01;102772.47;;;-1.45;100.00
47670;BME280;33408;52.062;11.722;2023-02-28T06:52:28;102780.91;;;-1.46;100.00
47670;BME280;33408;52.062;11.722;2023-02-28T06:54:55;102787.75;;;-1.32;100.00
47670;BME280;33408;52.062;11.722;2023-02-28T06:57:27;102782.94;;;-1.40;100.00
47670;BME280;33408;52.062;11.722;2023-02-28T06:59:57;102786.38;;;-1.26;100.00
47670;BME280;33408;52.062;11.722;2023-02-28T07:02:24;102782.44;;;-1.08;100.00
47670;BME280;33408;52.062;11.722;2023-02-28T07:04:50;102778.72;;;-1.13;100.00
47670;BME280;33408;52.062;11.722;2023-02-28T07:07:17;102792.81;;;-1.18;100.00
47670;BME280;33408;52.062;11.722;2023-02-28T07:09:44;102792.69;;;-1.06;100.00
47670;BME280;33408;52.062;11.722;2023-02-28T07:12:10;102793.31;;;-1.11;100.00
47670;BME280;33408;52.062;11.722;2023-02-28T07:14:37;102790.53;;;-1.00;100.00
47670;BME280;33408;52.062;11.722;2023-02-28T07:17:06;102796.13;;;-0.93;100.00
47670;BME280;33408;52.062;11.722;2023-02-28T07:19:33;102798.09;;;-1.02;100.00
47670;BME280;33408;52.062;11.722;2023-02-28T07:22:00;102798.94;;;-0.88;100.00
47670;BME280;33408;52.062;11.722;2023-02-28T07:24:28;102796.16;;;-0.78;100.00
47670;BME280;33408;52.062;11.722;2023-02-28T07:26:54;102797.69;;;-0.95;100.00
47670;BME280;33408;52.062;11.722;2023-02-28T07:29:21;102795.06;;;-0.96;100.00
47670;BME280;33408;52.062;11.722;2023-02-28T07:31:48;102804.03;;;-0.88;100.00
47670;BME280;33408;52.062;11.722;2023-02-28T07:34:17;102796.88;;;-0.52;100.00
47670;BME280;33408;52.062;11.722;2023-02-28T07:36:43;102803.47;;;-0.56;100.00
47670;BME280;33408;52.062;11.722;2023-02-28T07:39:10;102793.41;;;-0.39;100.00
47670;BME280;33408;52.062;11.722;2023-02-28T07:41:36;102802.66;;;-0.26;100.00
47670;BME280;33408;52.062;11.722;2023-02-28T07:44:08;102802.38;;;-0.31;100.00
47670;BME280;33408;52.062;11.722;2023-02-28T07:46:35;102801.97;;;-0.09;100.00
47670;BME280;33408;52.062;11.722;2023-02-28T07:49:02;102800.34;;;0.07;100.00
47670;BME280;33408;52.062;11.722;2023-02-28T07:51:30;102802.88;;;0.07;100.00
47670;BME280;33408;52.062;11.722;2023-02-28T07:53:57;102803.16;;;0.11;100.00
47670;BME280;33408;52.062;11.722;2023-02-28T07:56:23;102803.16;;;0.26;100.00
47670;BME280;33408;52.062;11.722;2023-02-28T07:58:53;102798.13;;;0.43;100.00
47670;BME280;33408;52.062;11.722;2023-02-28T08:01:20;102805.78;;;0.28;100.00
47670;BME280;33408;52.062;11.722;2023-02-28T08:03:47;102805.50;;;0.53;100.00
47670;BME280;33408;52.062;11.722;2023-02-28T08:06:18;102806.75;;;0.30;100.00
47670;BME280;33408;52.062;11.722;2023-02-28T08:08:47;102805.84;;;0.59;100.00
47670;BME280;33408;52.062;11.722;2023-02-28T08:11:14;102806.19;;;0.65;100.00
47670;BME280;33408;52.062;11.722;2023-02-28T08:13:42;102800.47;;;0.69;100.00
47670;BME280;33408;52.062;11.722;2023-02-28T08:16:09;102796.75;;;0.64;100.00
47670;BME280;33408;52.062;11.722;2023-02-28T08:18:36;102794.84;;;0.91;100.00
47670;BME280;33408;52.062;11.722;2023-02-28T08:21:06;102794.50;;;1.17;100.00
47670;BME280;33408;52.062;11.722;2023-02-28T08:23:32;102794.91;;;1.24;100.00
47670;BME280;33408;52.062;11.722;2023-02-28T08:26:01;102794.84;;;1.56;100.00
47670;BME280;33408;52.062;11.722;2023-02-28T08:28:28;102797.63;;;1.77;100.00
47670;BME280;33408;52.062;11.722;2023-02-28T08:30:55;102803.63;;;1.77;100.00
47670;BME280;33408;52.062;11.722;2023-02-28T08:33:22;102798.13;;;1.70;100.00
47670;BME280;33408;52.062;11.722;2023-02-28T08:35:52;102798.97;;;1.87;100.00
47670;BME280;33408;52.062;11.722;2023-02-28T08:38:19;102793.53;;;1.97;100.00
47670;BME280;33408;52.062;11.722;2023-02-28T08:40:46;102796.16;;;1.98;100.00
47670;BME280;33408;52.062;11.722;2023-02-28T08:43:14;102795.34;;;2.34;100.00
47670;BME280;33408;52.062;11.722;2023-02-28T08:45:40;102797.59;;;2.46;100.00
47670;BME280;33408;52.062;11.722;2023-02-28T08:48:07;102791.38;;;2.41;100.00
47670;BME280;33408;52.062;11.722;2023-02-28T08:50:33;102796.16;;;2.87;100.00
47670;BME280;33408;52.062;11.722;2023-02-28T08:53:00;102795.72;;;3.15;98.46
47670;BME280;33408;52.062;11.722;2023-02-28T08:55:26;102779.63;;;2.80;89.65
47670;BME280;33408;52.062;11.722;2023-02-28T08:57:53;102780.47;;;2.81;87.24
47670;BME280;33408;52.062;11.722;2023-02-28T09:00:22;102779.25;;;3.10;82.11
47670;BME280;33408;52.062;11.722;2023-02-28T09:02:49;102772.91;;;3.21;77.01
47670;BME280;33408;52.062;11.722;2023-02-28T09:05:16;102772.19;;;3.24;71.04
47670;BME280;33408;52.062;11.722;2023-02-28T09:07:42;102764.63;;;3.46;68.28
47670;BME280;33408;52.062;11.722;2023-02-28T09:10:10;102763.09;;;3.31;66.44
47670;BME280;33408;52.062;11.722;2023-02-28T09:12:36;102764.91;;;3.53;66.89
47670;BME280;33408;52.062;11.722;2023-02-28T09:15:04;102764.41;;;3.61;65.43
47670;BME280;33408;52.062;11.722;2023-02-28T09:17:32;102769.84;;;3.48;62.23
47670;BME280;33408;52.062;11.722;2023-02-28T09:19:59;102762.81;;;3.44;62.66
47670;BME280;33408;52.062;11.722;2023-02-28T09:22:25;102767.28;;;3.48;59.40
47670;BME280;33408;52.062;11.722;2023-02-28T09:24:52;102757.88;;;3.49;57.38
47670;BME280;33408;52.062;11.722;2023-02-28T09:27:18;102756.94;;;3.66;56.92
47670;BME280;33408;52.062;11.722;2023-02-28T09:29:45;102760.69;;;3.74;57.77
47670;BME280;33408;52.062;11.722;2023-02-28T09:32:12;102763.06;;;3.70;57.38
47670;BME280;33408;52.062;11.722;2023-02-28T09:34:40;102770.63;;;3.47;56.25
47670;BME280;33408;52.062;11.722;2023-02-28T09:37:06;102763.00;;;3.49;56.36
47670;BME280;33408;52.062;11.722;2023-02-28T09:39:33;102762.31;;;3.33;55.99
47670;BME280;33408;52.062;11.722;2023-02-28T09:42:01;102762.78;;;3.63;56.83
47670;BME280;33408;52.062;11.722;2023-02-28T09:44:31;102773.84;;;3.82;57.21
47670;BME280;33408;52.062;11.722;2023-02-28T09:47:04;102762.63;;;3.80;56.33
47670;BME280;33408;52.062;11.722;2023-02-28T09:49:36;102770.38;;;4.01;57.10
47670;BME280;33408;52.062;11.722;2023-02-28T09:52:09;102758.59;;;3.85;55.40
47670;BME280;33408;52.062;11.722;2023-02-28T09:54:37;102767.06;;;3.63;56.35
47670;BME280;33408;52.062;11.722;2023-02-28T09:57:07;102758.63;;;3.65;56.98
47670;BME280;33408;52.062;11.722;2023-02-28T09:59:49;102774.19;;;3.90;56.27
47670;BME280;33408;52.062;11.722;2023-02-28T10:02:40;102774.41;;;3.96;57.42
47670;BME280;33408;52.062;11.722;2023-02-28T10:05:11;102768.41;;;3.95;57.07
47670;BME280;33408;52.062;11.722;2023-02-28T10:07:50;102769.66;;;3.84;57.45
47670;BME280;33408;52.062;11.722;2023-02-28T10:10:23;102772.41;;;3.89;58.84
47670;BME280;33408;52.062;11.722;2023-02-28T10:12:52;102768.53;;;3.98;57.81
47670;BME280;33408;52.062;11.722;2023-02-28T10:15:21;102770.72;;;3.89;57.05
47670;BME280;33408;52.062;11.722;2023-02-28T10:17:53;102765.16;;;4.20;57.39
47670;BME280;33408;52.062;11.722;2023-02-28T10:20:22;102768.97;;;4.30;57.40
47670;BME280;33408;52.062;11.722;2023-02-28T10:22:59;102771.38;;;4.26;56.39
47670;BME280;33408;52.062;11.722;2023-02-28T10:25:33;102770.72;;;4.31;56.89
47670;BME280;33408;52.062;11.722;2023-02-28T10:28:09;102773.88;;;4.24;56.41
47670;BME280;33408;52.062;11.722;2023-02-28T10:30:39;102769.72;;;4.07;55.72
47670;BME280;33408;52.062;11.722;2023-02-28T10:33:17;102773.94;;;4.26;56.02
47670;BME280;33408;52.062;11.722;2023-02-28T10:35:45;102762.47;;;4.17;54.71
47670;BME280;33408;52.062;11.722;2023-02-28T10:38:17;102756.22;;;4.11;54.60
47670;BME280;33408;52.062;11.722;2023-02-28T10:40:44;102762.28;;;4.34;56.73
47670;BME280;33408;52.062;11.722;2023-02-28T10:43:21;102774.78;;;4.47;56.36
47670;BME280;33408;52.062;11.722;2023-02-28T10:45:55;102769.81;;;4.52;55.55
47670;BME280;33408;52.062;11.722;2023-02-28T10:48:30;102752.59;;;4.27;55.39
47670;BME280;33408;52.062;11.722;2023-02-28T10:50:58;102755.50;;;4.15;55.32
47670;BME280;33408;52.062;11.722;2023-02-28T10:53:32;102758.28;;;4.19;55.00
47670;BME280;33408;52.062;11.722;2023-02-28T10:56:01;102749.50;;;4.35;55.58
47670;BME280;33408;52.062;11.722;2023-02-28T10:58:30;102752.88;;;4.34;53.88
47670;BME280;33408;52.062;11.722;2023-02-28T11:00:57;102753.06;;;4.39;55.38
47670;BME280;33408;52.062;11.722;2023-02-28T11:03:30;102752.63;;;4.49;54.31
47670;BME280;33408;52.062;11.722;2023-02-28T11:05:57;102747.19;;;4.42;55.02
47670;BME280;33408;52.062;11.722;2023-02-28T11:08:24;102747.38;;;4.69;56.23
47670;BME280;33408;52.062;11.722;2023-02-28T11:10:56;102743.16;;;4.93;54.40
47670;BME280;33408;52.062;11.722;2023-02-28T11:13:27;102743.09;;;4.92;53.77
47670;BME280;33408;52.062;11.722;2023-02-28T11:15:56;102740.34;;;4.87;53.29
47670;BME280;33408;52.062;11.722;2023-02-28T11:18:27;102736.44;;;4.52;53.69
47670;BME280;33408;52.062;11.722;2023-02-28T11:20:57;102732.88;;;4.48;53.82
47670;BME280;33408;52.062;11.722;2023-02-28T11:23:27;102735.75;;;4.56;55.04
47670;BME280;33408;52.062;11.722;2023-02-28T11:25:58;102734.63;;;4.27;54.80
47670;BME280;33408;52.062;11.722;2023-02-28T11:28:28;102734.78;;;4.54;53.66
47670;BME280;33408;52.062;11.722;2023-02-28T11:31:01;102731.06;;;4.46;53.29
47670;BME280;33408;52.062;11.722;2023-02-28T11:33:29;102723.47;;;4.49;52.78
47670;BME280;33408;52.062;11.722;2023-02-28T11:36:00;102726.75;;;4.67;53.29
47670;BME280;33408;52.062;11.722;2023-02-28T11:38:27;102714.47;;;4.37;54.61
47670;BME280;33408;52.062;11.722;2023-02-28T11:41:07;102714.53;;;4.62;54.59
47670;BME280;33408;52.062;11.722;2023-02-28T11:43:51;102721.97;;;4.77;54.43
47670;BME280;33408;52.062;11.722;2023-02-28T11:46:24;102725.94;;;4.68;55.35
47670;BME280;33408;52.062;11.722;2023-02-28T11:48:58;102712.69;;;4.80;54.62
47670;BME280;33408;52.062;11.722;2023-02-28T11:51:33;102717.75;;;4.79;55.80
47670;BME280;33408;52.062;11.722;2023-02-28T11:54:16;102718.81;;;4.61;55.42
47670;BME280;33408;52.062;11.722;2023-02-28T11:56:54;102715.31;;;4.59;54.37
47670;BME280;33408;52.062;11.722;2023-02-28T11:59:35;102710.19;;;4.82;54.77
47670;BME280;33408;52.062;11.722;2023-02-28T12:02:06;102710.25;;;5.07;54.77
47670;BME280;33408;52.062;11.722;2023-02-28T12:04:52;102704.00;;;4.77;55.19
47670;BME280;33408;52.062;11.722;2023-02-28T12:07:25;102706.41;;;4.96;55.69
47670;BME280;33408;52.062;11.722;2023-02-28T12:10:03;102710.66;;;4.96;55.88
47670;BME280;33408;52.062;11.722;2023-02-28T12:12:41;102701.66;;;4.60;54.86
47670;BME280;33408;52.062;11.722;2023-02-28T12:15:24;102708.84;;;4.69;55.44
47670;BME280;33408;52.062;11.722;2023-02-28T12:18:07;102709.81;;;4.95;55.51
47670;BME280;33408;52.062;11.722;2023-02-28T12:20:44;102700.44;;;4.97;54.69
47670;BME280;33408;52.062;11.722;2023-02-28T12:23:22;102698.03;;;5.02;54.58
47670;BME280;33408;52.062;11.722;2023-02-28T12:26:01;102700.03;;;5.09;54.01
47670;BME280;33408;52.062;11.722;2023-02-28T12:28:33;102687.22;;;5.10;52.39
47670;BME280;33408;52.062;11.722;2023-02-28T12:31:04;102689.34;;;4.98;53.31
47670;BME280;33408;52.062;11.722;2023-02-28T12:33:37;102687.34;;;5.14;54.08
47670;BME280;33408;52.062;11.722;2023-02-28T12:36:09;102677.19;;;4.94;53.74
47670;BME280;33408;52.062;11.722;2023-02-28T12:38:39;102680.59;;;4.93;53.45
47670;BME280;33408;52.062;11.722;2023-02-28T12:41:12;102670.78;;;5.07;53.57
47670;BME280;33408;52.062;11.722;2023-02-28T12:43:42;102670.00;;;5.08;53.57
47670;BME280;33408;52.062;11.722;2023-02-28T12:46:11;102670.09;;;5.35;53.25
47670;BME280;33408;52.062;11.722;2023-02-28T12:48:40;102665.75;;;5.34;52.26
47670;BME280;33408;52.062;11.722;2023-02-28T12:51:09;102669.44;;;4.92;52.53
47670;BME280;33408;52.062;11.722;2023-02-28T12:53:48;102654.84;;;5.16;52.45
47670;BME280;33408;52.062;11.722;2023-02-28T12:56:20;102660.72;;;5.13;53.57
47670;BME280;33408;52.062;11.722;2023-02-28T12:58:55;102652.50;;;5.22;53.53